sensor_id;sensor_type;location;lat;lon;timestamp;P1;durP1;ratioP1;P2;durP2;ratioP2
33902;SDS011;20194;50.950;5.346;2022-08-01T00:01:51;3.67;;;1.77;;
33902;SDS011;20194;50.950;5.346;2022-08-01T00:04:17;4.57;;;2.03;;
33902;SDS011;20194;50.950;5.346;2022-08-01T00:06:42;4.07;;;2.17;;
33902;SDS011;20194;50.950;5.346;2022-08-01T00:09:08;3.88;;;1.92;;
33902;SDS011;20194;50.950;5.346;2022-08-01T00:11:33;3.40;;;1.92;;
33902;SDS011;20194;50.950;5.346;2022-08-01T00:14:00;4.03;;;1.88;;
33902;SDS011;20194;50.950;5.346;2022-08-01T00:16:25;4.20;;;2.00;;
33902;SDS011;20194;50.950;5.346;2022-08-01T00:18:51;5.80;;;1.95;;
33902;SDS011;20194;50.950;5.346;2022-08-01T00:21:17;3.45;;;2.00;;
33902;SDS011;20194;50.950;5.346;2022-08-01T00:23:43;4.43;;;1.80;;
33902;SDS011;20194;50.950;5.346;2022-08-01T00:26:10;3.53;;;1.90;;
33902;SDS011;20194;50.950;5.346;2022-08-01T00:28:39;5.55;;;2.10;;
33902;SDS011;20194;50.950;5.346;2022-08-01T00:31:05;2.95;;;1.95;;
33902;SDS011;20194;50.950;5.346;2022-08-01T00:33:31;3.40;;;1.60;;
33902;SDS011;20194;50.950;5.346;2022-08-01T00:35:57;3.47;;;1.70;;
33902;SDS011;20194;50.950;5.346;2022-08-01T00:38:23;4.22;;;1.88;;
33902;SDS011;20194;50.950;5.346;2022-08-01T00:40:48;2.78;;;1.80;;
33902;SDS011;20194;50.950;5.346;2022-08-01T00:43:15;2.80;;;1.80;;
33902;SDS011;20194;50.950;5.346;2022-08-01T00:45:41;3.78;;;1.85;;
33902;SDS011;20194;50.950;5.346;2022-08-01T00:48:06;3.58;;;2.00;;
33902;SDS011;20194;50.950;5.346;2022-08-01T00:50:33;4.60;;;1.85;;
33902;SDS011;20194;50.950;5.346;2022-08-01T00:52:59;2.70;;;1.50;;
33902;SDS011;20194;50.950;5.346;2022-08-01T00:55:27;4.75;;;1.50;;
33902;SDS011;20194;50.950;5.346;2022-08-01T00:57:53;2.85;;;1.63;;
33902;SDS011;20194;50.950;5.346;2022-08-01T01:00:20;4.70;;;1.48;;
33902;SDS011;20194;50.950;5.346;2022-08-01T01:02:46;4.13;;;1.73;;
33902;SDS011;20194;50.950;5.346;2022-08-01T01:05:12;3.63;;;1.90;;
33902;SDS011;20194;50.950;5.346;2022-08-01T01:07:56;5.70;;;1.75;;
33902;SDS011;20194;50.950;5.346;2022-08-01T01:10:30;4.93;;;2.03;;
33902;SDS011;20194;50.950;5.346;2022-08-01T01:13:15;3.33;;;1.95;;
33902;SDS011;20194;50.950;5.346;2022-08-01T01:18:25;3.38;;;1.90;;
33902;SDS011;20194;50.950;5.346;2022-08-01T01:29:46;2.70;;;1.92;;
33902;SDS011;20194;50.950;5.346;2022-08-01T01:35:12;5.83;;;2.13;;
33902;SDS011;20194;50.950;5.346;2022-08-01T01:40:09;4.05;;;2.25;;
33902;SDS011;20194;50.950;5.346;2022-08-01T01:42:36;5.53;;;2.25;;
33902;SDS011;20194;50.950;5.346;2022-08-01T01:45:03;4.53;;;1.88;;
33902;SDS011;20194;50.950;5.346;2022-08-01T01:47:30;10.40;;;2.40;;
33902;SDS011;20194;50.950;5.346;2022-08-01T01:49:57;8.65;;;2.22;;
33902;SDS011;20194;50.950;5.346;2022-08-01T01:52:25;13.40;;;2.63;;
33902;SDS011;20194;50.950;5.346;2022-08-01T01:54:52;3.63;;;2.03;;
33902;SDS011;20194;50.950;5.346;2022-08-01T01:57:20;5.55;;;2.13;;
33902;SDS011;20194;50.950;5.346;2022-08-01T01:59:47;3.95;;;1.88;;
33902;SDS011;20194;50.950;5.346;2022-08-01T02:02:16;5.05;;;2.30;;
33902;SDS011;20194;50.950;5.346;2022-08-01T02:04:44;2.85;;;1.75;;
33902;SDS011;20194;50.950;5.346;2022-08-01T02:07:12;3.38;;;1.65;;
33902;SDS011;20194;50.950;5.346;2022-08-01T02:09:42;4.05;;;2.10;;
33902;SDS011;20194;50.950;5.346;2022-08-01T02:12:11;8.23;;;2.50;;
33902;SDS011;20194;50.950;5.346;2022-08-01T02:14:40;5.88;;;2.70;;
33902;SDS011;20194;50.950;5.346;2022-08-01T02:17:08;6.28;;;2.40;;
33902;SDS011;20194;50.950;5.346;2022-08-01T02:19:36;5.35;;;2.72;;
33902;SDS011;20194;50.950;5.346;2022-08-01T02:22:10;6.78;;;2.35;;
33902;SDS011;20194;50.950;5.346;2022-08-01T02:27:14;3.67;;;2.20;;
33902;SDS011;20194;50.950;5.346;2022-08-01T02:29:47;6.75;;;2.42;;
33902;SDS011;20194;50.950;5.346;2022-08-01T02:32:20;5.57;;;2.70;;
33902;SDS011;20194;50.950;5.346;2022-08-01T02:34:51;4.27;;;2.37;;
33902;SDS011;20194;50.950;5.346;2022-08-01T02:37:21;7.18;;;2.83;;
33902;SDS011;20194;50.950;5.346;2022-08-01T02:39:49;6.57;;;2.45;;
33902;SDS011;20194;50.950;5.346;2022-08-01T02:42:18;5.75;;;2.88;;
33902;SDS011;20194;50.950;5.346;2022-08-01T02:44:45;5.00;;;2.65;;
33902;SDS011;20194;50.950;5.346;2022-08-01T02:47:13;5.82;;;3.08;;
33902;SDS011;20194;50.950;5.346;2022-08-01T02:49:43;7.60;;;2.83;;
33902;SDS011;20194;50.950;5.346;2022-08-01T02:52:14;8.82;;;2.97;;
33902;SDS011;20194;50.950;5.346;2022-08-01T02:54:47;11.80;;;2.70;;
33902;SDS011;20194;50.950;5.346;2022-08-01T02:57:16;10.73;;;3.30;;
33902;SDS011;20194;50.950;5.346;2022-08-01T02:59:44;6.53;;;2.95;;
33902;SDS011;20194;50.950;5.346;2022-08-01T03:02:11;7.30;;;3.13;;
33902;SDS011;20194;50.950;5.346;2022-08-01T03:04:39;8.63;;;3.10;;
33902;SDS011;20194;50.950;5.346;2022-08-01T03:07:07;4.20;;;2.30;;
33902;SDS011;20194;50.950;5.346;2022-08-01T03:09:38;5.63;;;3.22;;
33902;SDS011;20194;50.950;5.346;2022-08-01T03:12:09;10.77;;;3.50;;
33902;SDS011;20194;50.950;5.346;2022-08-01T03:14:39;9.57;;;3.45;;
33902;SDS011;20194;50.950;5.346;2022-08-01T03:17:06;8.45;;;3.25;;
33902;SDS011;20194;50.950;5.346;2022-08-01T03:19:34;9.43;;;3.28;;
33902;SDS011;20194;50.950;5.346;2022-08-01T03:22:03;5.57;;;3.60;;
33902;SDS011;20194;50.950;5.346;2022-08-01T03:24:32;6.90;;;3.92;;
33902;SDS011;20194;50.950;5.346;2022-08-01T03:26:59;10.38;;;3.83;;
33902;SDS011;20194;50.950;5.346;2022-08-01T03:29:27;6.30;;;3.80;;
33902;SDS011;20194;50.950;5.346;2022-08-01T03:31:54;4.55;;;3.35;;
33902;SDS011;20194;50.950;5.346;2022-08-01T03:34:22;7.25;;;3.85;;
33902;SDS011;20194;50.950;5.346;2022-08-01T03:36:49;5.72;;;4.28;;
33902;SDS011;20194;50.950;5.346;2022-08-01T03:39:30;14.55;;;4.82;;
33902;SDS011;20194;50.950;5.346;2022-08-01T03:42:05;10.53;;;4.37;;
33902;SDS011;20194;50.950;5.346;2022-08-01T03:44:37;8.05;;;4.30;;
33902;SDS011;20194;50.950;5.346;2022-08-01T03:47:05;8.93;;;4.45;;
33902;SDS011;20194;50.950;5.346;2022-08-01T03:49:35;8.68;;;4.90;;
33902;SDS011;20194;50.950;5.346;2022-08-01T03:52:06;10.77;;;5.28;;
33902;SDS011;20194;50.950;5.346;2022-08-01T03:54:35;8.02;;;4.82;;
33902;SDS011;20194;50.950;5.346;2022-08-01T03:57:03;12.60;;;5.00;;
33902;SDS011;20194;50.950;5.346;2022-08-01T03:59:30;8.57;;;4.75;;
33902;SDS011;20194;50.950;5.346;2022-08-01T04:01:57;10.70;;;5.10;;
33902;SDS011;20194;50.950;5.346;2022-08-01T04:04:24;10.43;;;5.20;;
33902;SDS011;20194;50.950;5.346;2022-08-01T04:06:50;9.93;;;4.82;;
33902;SDS011;20194;50.950;5.346;2022-08-01T04:09:18;10.35;;;4.75;;
33902;SDS011;20194;50.950;5.346;2022-08-01T04:11:45;11.35;;;5.30;;
33902;SDS011;20194;50.950;5.346;2022-08-01T04:14:12;13.02;;;6.00;;
33902;SDS011;20194;50.950;5.346;2022-08-01T04:16:37;9.48;;;5.68;;
33902;SDS011;20194;50.950;5.346;2022-08-01T04:19:04;15.23;;;6.38;;
33902;SDS011;20194;50.950;5.346;2022-08-01T04:21:33;11.88;;;5.45;;
33902;SDS011;20194;50.950;5.346;2022-08-01T04:24:01;10.85;;;5.68;;
33902;SDS011;20194;50.950;5.346;2022-08-01T04:26:34;11.48;;;5.90;;
33902;SDS011;20194;50.950;5.346;2022-08-01T04:29:02;8.77;;;5.55;;
33902;SDS011;20194;50.950;5.346;2022-08-01T04:31:30;12.75;;;6.47;;
33902;SDS011;20194;50.950;5.346;2022-08-01T04:33:57;12.00;;;5.38;;
33902;SDS011;20194;50.950;5.346;2022-08-01T04:36:26;13.02;;;5.35;;
33902;SDS011;20194;50.950;5.346;2022-08-01T04:38:56;14.82;;;6.30;;
33902;SDS011;20194;50.950;5.346;2022-08-01T04:41:25;13.13;;;5.18;;
33902;SDS011;20194;50.950;5.346;2022-08-01T04:43:51;10.88;;;5.28;;
33902;SDS011;20194;50.950;5.346;2022-08-01T04:46:19;9.40;;;6.03;;
33902;SDS011;20194;50.950;5.346;2022-08-01T04:48:44;15.70;;;6.32;;
33902;SDS011;20194;50.950;5.346;2022-08-01T04:51:11;12.57;;;6.13;;
33902;SDS011;20194;50.950;5.346;2022-08-01T04:53:40;18.50;;;8.52;;
33902;SDS011;20194;50.950;5.346;2022-08-01T04:56:06;11.25;;;6.80;;
33902;SDS011;20194;50.950;5.346;2022-08-01T04:58:32;17.15;;;7.18;;
33902;SDS011;20194;50.950;5.346;2022-08-01T05:00:57;14.07;;;6.72;;
33902;SDS011;20194;50.950;5.346;2022-08-01T05:03:23;10.30;;;6.47;;
33902;SDS011;20194;50.950;5.346;2022-08-01T05:05:49;16.45;;;7.05;;
33902;SDS011;20194;50.950;5.346;2022-08-01T05:08:14;13.32;;;6.90;;
33902;SDS011;20194;50.950;5.346;2022-08-01T05:10:41;21.15;;;7.65;;
33902;SDS011;20194;50.950;5.346;2022-08-01T05:13:07;20.08;;;8.88;;
33902;SDS011;20194;50.950;5.346;2022-08-01T05:15:36;19.80;;;9.63;;
33902;SDS011;20194;50.950;5.346;2022-08-01T05:18:02;17.88;;;10.05;;
33902;SDS011;20194;50.950;5.346;2022-08-01T05:20:28;18.10;;;10.05;;
33902;SDS011;20194;50.950;5.346;2022-08-01T05:22:54;22.85;;;11.00;;
33902;SDS011;20194;50.950;5.346;2022-08-01T05:25:20;19.17;;;10.80;;
33902;SDS011;20194;50.950;5.346;2022-08-01T05:27:46;22.08;;;11.77;;
33902;SDS011;20194;50.950;5.346;2022-08-01T05:30:12;30.13;;;12.32;;
33902;SDS011;20194;50.950;5.346;2022-08-01T05:32:38;29.42;;;12.90;;
33902;SDS011;20194;50.950;5.346;2022-08-01T05:35:06;23.25;;;13.23;;
33902;SDS011;20194;50.950;5.346;2022-08-01T05:37:32;22.92;;;13.18;;
33902;SDS011;20194;50.950;5.346;2022-08-01T05:39:58;22.13;;;13.10;;
33902;SDS011;20194;50.950;5.346;2022-08-01T05:42:24;25.92;;;13.10;;
33902;SDS011;20194;50.950;5.346;2022-08-01T05:44:49;20.73;;;12.68;;
33902;SDS011;20194;50.950;5.346;2022-08-01T05:47:16;24.33;;;13.32;;
33902;SDS011;20194;50.950;5.346;2022-08-01T05:49:42;22.05;;;13.52;;
33902;SDS011;20194;50.950;5.346;2022-08-01T05:52:08;21.45;;;13.50;;
33902;SDS011;20194;50.950;5.346;2022-08-01T05:54:33;21.23;;;13.18;;
33902;SDS011;20194;50.950;5.346;2022-08-01T05:56:59;28.50;;;13.38;;
33902;SDS011;20194;50.950;5.346;2022-08-01T05:59:26;21.15;;;12.70;;
33902;SDS011;20194;50.950;5.346;2022-08-01T06:01:53;21.33;;;12.88;;
33902;SDS011;20194;50.950;5.346;2022-08-01T06:04:19;20.60;;;12.30;;
33902;SDS011;20194;50.950;5.346;2022-08-01T06:06:45;19.77;;;11.73;;
33902;SDS011;20194;50.950;5.346;2022-08-01T06:09:10;19.25;;;12.20;;
33902;SDS011;20194;50.950;5.346;2022-08-01T06:11:36;19.73;;;10.35;;
33902;SDS011;20194;50.950;5.346;2022-08-01T06:14:03;18.02;;;9.98;;
33902;SDS011;20194;50.950;5.346;2022-08-01T06:16:29;15.73;;;9.00;;
33902;SDS011;20194;50.950;5.346;2022-08-01T06:18:55;17.50;;;9.98;;
33902;SDS011;20194;50.950;5.346;2022-08-01T06:21:20;15.32;;;9.18;;
33902;SDS011;20194;50.950;5.346;2022-08-01T06:23:46;17.70;;;10.23;;
33902;SDS011;20194;50.950;5.346;2022-08-01T06:26:11;17.70;;;9.60;;
33902;SDS011;20194;50.950;5.346;2022-08-01T06:28:38;20.63;;;9.57;;
33902;SDS011;20194;50.950;5.346;2022-08-01T06:31:04;17.63;;;10.05;;
33902;SDS011;20194;50.950;5.346;2022-08-01T06:33:29;16.15;;;9.57;;
33902;SDS011;20194;50.950;5.346;2022-08-01T06:35:55;14.23;;;9.23;;
33902;SDS011;20194;50.950;5.346;2022-08-01T06:38:21;19.60;;;9.40;;
33902;SDS011;20194;50.950;5.346;2022-08-01T06:40:47;19.70;;;9.68;;
33902;SDS011;20194;50.950;5.346;2022-08-01T06:43:13;17.67;;;9.57;;
33902;SDS011;20194;50.950;5.346;2022-08-01T06:45:40;17.88;;;9.65;;
33902;SDS011;20194;50.950;5.346;2022-08-01T06:48:06;15.90;;;8.88;;
33902;SDS011;20194;50.950;5.346;2022-08-01T06:50:32;17.60;;;9.52;;
33902;SDS011;20194;50.950;5.346;2022-08-01T06:52:57;16.02;;;9.48;;
33902;SDS011;20194;50.950;5.346;2022-08-01T06:55:24;17.83;;;9.77;;
33902;SDS011;20194;50.950;5.346;2022-08-01T06:57:50;21.23;;;9.05;;
33902;SDS011;20194;50.950;5.346;2022-08-01T07:00:17;20.17;;;10.50;;
33902;SDS011;20194;50.950;5.346;2022-08-01T07:02:47;18.00;;;9.73;;
33902;SDS011;20194;50.950;5.346;2022-08-01T07:05:17;22.60;;;10.13;;
33902;SDS011;20194;50.950;5.346;2022-08-01T07:07:43;17.63;;;10.93;;
33902;SDS011;20194;50.950;5.346;2022-08-01T07:10:09;19.50;;;10.07;;
33902;SDS011;20194;50.950;5.346;2022-08-01T07:12:35;15.93;;;10.35;;
33902;SDS011;20194;50.950;5.346;2022-08-01T07:15:05;20.05;;;10.00;;
33902;SDS011;20194;50.950;5.346;2022-08-01T07:17:36;19.80;;;11.00;;
33902;SDS011;20194;50.950;5.346;2022-08-01T07:20:09;21.63;;;10.77;;
33902;SDS011;20194;50.950;5.346;2022-08-01T07:22:37;16.38;;;10.75;;
33902;SDS011;20194;50.950;5.346;2022-08-01T07:25:06;14.52;;;8.55;;
33902;SDS011;20194;50.950;5.346;2022-08-01T07:27:32;17.55;;;10.98;;
33902;SDS011;20194;50.950;5.346;2022-08-01T07:30:00;15.50;;;9.65;;
33902;SDS011;20194;50.950;5.346;2022-08-01T07:32:26;15.10;;;9.52;;
33902;SDS011;20194;50.950;5.346;2022-08-01T07:34:54;19.02;;;9.88;;
33902;SDS011;20194;50.950;5.346;2022-08-01T07:37:19;16.98;;;9.63;;
33902;SDS011;20194;50.950;5.346;2022-08-01T07:39:45;14.35;;;8.30;;
33902;SDS011;20194;50.950;5.346;2022-08-01T07:42:11;16.50;;;8.55;;
33902;SDS011;20194;50.950;5.346;2022-08-01T07:44:36;15.88;;;8.98;;
33902;SDS011;20194;50.950;5.346;2022-08-01T07:47:03;14.95;;;7.97;;
33902;SDS011;20194;50.950;5.346;2022-08-01T07:49:29;12.45;;;7.15;;
33902;SDS011;20194;50.950;5.346;2022-08-01T07:51:55;10.38;;;6.30;;
33902;SDS011;20194;50.950;5.346;2022-08-01T07:54:21;7.25;;;5.68;;
33902;SDS011;20194;50.950;5.346;2022-08-01T07:56:49;15.32;;;6.63;;
33902;SDS011;20194;50.950;5.346;2022-08-01T07:59:15;10.88;;;5.93;;
33902;SDS011;20194;50.950;5.346;2022-08-01T08:01:41;10.57;;;5.95;;
33902;SDS011;20194;50.950;5.346;2022-08-01T08:04:07;9.63;;;6.00;;
33902;SDS011;20194;50.950;5.346;2022-08-01T08:06:33;11.18;;;5.10;;
33902;SDS011;20194;50.950;5.346;2022-08-01T08:08:58;12.77;;;5.65;;
33902;SDS011;20194;50.950;5.346;2022-08-01T08:11:24;15.13;;;5.43;;
33902;SDS011;20194;50.950;5.346;2022-08-01T08:13:50;6.00;;;4.80;;
33902;SDS011;20194;50.950;5.346;2022-08-01T08:16:16;9.85;;;6.13;;
33902;SDS011;20194;50.950;5.346;2022-08-01T08:18:42;9.32;;;5.13;;
33902;SDS011;20194;50.950;5.346;2022-08-01T08:21:07;8.23;;;5.20;;
33902;SDS011;20194;50.950;5.346;2022-08-01T08:23:33;8.57;;;4.47;;
33902;SDS011;20194;50.950;5.346;2022-08-01T08:26:17;9.27;;;4.55;;
33902;SDS011;20194;50.950;5.346;2022-08-01T08:28:43;5.57;;;4.05;;
33902;SDS011;20194;50.950;5.346;2022-08-01T08:31:08;5.45;;;3.83;;
33902;SDS011;20194;50.950;5.346;2022-08-01T08:33:34;5.93;;;3.50;;
33902;SDS011;20194;50.950;5.346;2022-08-01T08:36:00;5.57;;;3.40;;
33902;SDS011;20194;50.950;5.346;2022-08-01T08:38:25;5.30;;;3.45;;
33902;SDS011;20194;50.950;5.346;2022-08-01T08:40:53;5.05;;;4.03;;
33902;SDS011;20194;50.950;5.346;2022-08-01T08:43:18;7.55;;;4.60;;
33902;SDS011;20194;50.950;5.346;2022-08-01T08:45:45;5.80;;;4.13;;
33902;SDS011;20194;50.950;5.346;2022-08-01T08:48:12;6.50;;;4.45;;
33902;SDS011;20194;50.950;5.346;2022-08-01T08:50:38;4.25;;;3.85;;
33902;SDS011;20194;50.950;5.346;2022-08-01T08:53:06;4.80;;;4.30;;
33902;SDS011;20194;50.950;5.346;2022-08-01T08:55:35;5.65;;;4.78;;
33902;SDS011;20194;50.950;5.346;2022-08-01T08:58:02;5.53;;;4.35;;
33902;SDS011;20194;50.950;5.346;2022-08-01T09:00:30;7.07;;;4.55;;
33902;SDS011;20194;50.950;5.346;2022-08-01T09:02:57;6.72;;;4.80;;
33902;SDS011;20194;50.950;5.346;2022-08-01T09:05:23;5.07;;;4.20;;
33902;SDS011;20194;50.950;5.346;2022-08-01T09:07:52;5.65;;;4.78;;
33902;SDS011;20194;50.950;5.346;2022-08-01T09:10:18;6.20;;;4.95;;
33902;SDS011;20194;50.950;5.346;2022-08-01T09:15:48;5.50;;;5.00;;
33902;SDS011;20194;50.950;5.346;2022-08-01T09:18:39;17.40;;;4.93;;
33902;SDS011;20194;50.950;5.346;2022-08-01T09:23:51;5.53;;;4.13;;
33902;SDS011;20194;50.950;5.346;2022-08-01T09:26:19;5.20;;;3.22;;
33902;SDS011;20194;50.950;5.346;2022-08-01T09:28:55;4.47;;;3.38;;
33902;SDS011;20194;50.950;5.346;2022-08-01T09:31:21;4.07;;;2.95;;
33902;SDS011;20194;50.950;5.346;2022-08-01T09:33:55;5.85;;;3.75;;
33902;SDS011;20194;50.950;5.346;2022-08-01T09:36:23;6.65;;;3.20;;
33902;SDS011;20194;50.950;5.346;2022-08-01T09:38:50;4.93;;;2.70;;
33902;SDS011;20194;50.950;5.346;2022-08-01T09:41:17;3.58;;;2.83;;
33902;SDS011;20194;50.950;5.346;2022-08-01T09:43:54;4.30;;;3.33;;
33902;SDS011;20194;50.950;5.346;2022-08-01T09:46:20;3.47;;;3.17;;
33902;SDS011;20194;50.950;5.346;2022-08-01T09:48:59;4.00;;;2.63;;
33902;SDS011;20194;50.950;5.346;2022-08-01T09:51:36;5.18;;;3.00;;
33902;SDS011;20194;50.950;5.346;2022-08-01T09:54:04;4.07;;;2.92;;
33902;SDS011;20194;50.950;5.346;2022-08-01T09:56:40;3.78;;;2.33;;
33902;SDS011;20194;50.950;5.346;2022-08-01T09:59:10;3.53;;;2.50;;
33902;SDS011;20194;50.950;5.346;2022-08-01T10:01:45;5.20;;;3.05;;
33902;SDS011;20194;50.950;5.346;2022-08-01T10:04:18;3.95;;;2.40;;
33902;SDS011;20194;50.950;5.346;2022-08-01T10:06:49;2.53;;;1.90;;
33902;SDS011;20194;50.950;5.346;2022-08-01T10:09:28;3.00;;;2.70;;
33902;SDS011;20194;50.950;5.346;2022-08-01T10:11:55;4.13;;;2.22;;
33902;SDS011;20194;50.950;5.346;2022-08-01T10:14:23;4.82;;;2.13;;
33902;SDS011;20194;50.950;5.346;2022-08-01T10:16:51;4.38;;;2.33;;
33902;SDS011;20194;50.950;5.346;2022-08-01T10:19:18;2.65;;;2.40;;
33902;SDS011;20194;50.950;5.346;2022-08-01T10:21:47;2.22;;;1.90;;
33902;SDS011;20194;50.950;5.346;2022-08-01T10:24:17;3.03;;;2.00;;
33902;SDS011;20194;50.950;5.346;2022-08-01T10:26:46;6.07;;;2.42;;
33902;SDS011;20194;50.950;5.346;2022-08-01T10:29:14;2.25;;;2.05;;
33902;SDS011;20194;50.950;5.346;2022-08-01T10:31:43;2.53;;;2.25;;
33902;SDS011;20194;50.950;5.346;2022-08-01T10:34:10;4.28;;;2.10;;
33902;SDS011;20194;50.950;5.346;2022-08-01T10:36:40;3.22;;;2.13;;
33902;SDS011;20194;50.950;5.346;2022-08-01T10:39:09;2.17;;;1.95;;
33902;SDS011;20194;50.950;5.346;2022-08-01T10:41:37;3.25;;;2.25;;
33902;SDS011;20194;50.950;5.346;2022-08-01T10:44:03;4.20;;;2.22;;
33902;SDS011;20194;50.950;5.346;2022-08-01T10:46:37;6.35;;;2.42;;
33902;SDS011;20194;50.950;5.346;2022-08-01T10:49:05;5.10;;;2.10;;
33902;SDS011;20194;50.950;5.346;2022-08-01T10:51:39;2.00;;;1.85;;
33902;SDS011;20194;50.950;5.346;2022-08-01T10:54:07;2.10;;;1.55;;
33902;SDS011;20194;50.950;5.346;2022-08-01T10:56:47;3.47;;;1.95;;
33902;SDS011;20194;50.950;5.346;2022-08-01T10:59:24;3.78;;;1.80;;
33902;SDS011;20194;50.950;5.346;2022-08-01T11:01:58;5.13;;;2.00;;
33902;SDS011;20194;50.950;5.346;2022-08-01T11:04:42;4.03;;;1.80;;
33902;SDS011;20194;50.950;5.346;2022-08-01T11:07:23;3.42;;;1.83;;
33902;SDS011;20194;50.950;5.346;2022-08-01T11:10:23;2.70;;;2.30;;
33902;SDS011;20194;50.950;5.346;2022-08-01T11:13:01;2.65;;;1.90;;
33902;SDS011;20194;50.950;5.346;2022-08-01T11:15:30;3.03;;;1.75;;
33902;SDS011;20194;50.950;5.346;2022-08-01T11:17:56;3.35;;;1.77;;
33902;SDS011;20194;50.950;5.346;2022-08-01T11:20:35;2.78;;;1.70;;
33902;SDS011;20194;50.950;5.346;2022-08-01T11:28:23;4.63;;;1.83;;
33902;SDS011;20194;50.950;5.346;2022-08-01T11:30:49;3.13;;;2.10;;
33902;SDS011;20194;50.950;5.346;2022-08-01T11:33:18;2.03;;;1.52;;
33902;SDS011;20194;50.950;5.346;2022-08-01T11:38:36;2.45;;;2.10;;
33902;SDS011;20194;50.950;5.346;2022-08-01T11:44:04;3.55;;;2.30;;
33902;SDS011;20194;50.950;5.346;2022-08-01T11:52:16;2.40;;;2.20;;
33902;SDS011;20194;50.950;5.346;2022-08-01T11:54:56;2.30;;;2.10;;
33902;SDS011;20194;50.950;5.346;2022-08-01T11:59:51;2.58;;;1.88;;
33902;SDS011;20194;50.950;5.346;2022-08-01T12:02:27;2.63;;;2.28;;
33902;SDS011;20194;50.950;5.346;2022-08-01T12:04:55;2.30;;;1.98;;
33902;SDS011;20194;50.950;5.346;2022-08-01T12:07:22;2.30;;;1.80;;
33902;SDS011;20194;50.950;5.346;2022-08-01T12:09:56;1.80;;;1.70;;
33902;SDS011;20194;50.950;5.346;2022-08-01T12:12:45;3.88;;;1.73;;
33902;SDS011;20194;50.950;5.346;2022-08-01T12:15:17;3.28;;;2.20;;
33902;SDS011;20194;50.950;5.346;2022-08-01T12:17:44;2.88;;;1.58;;
33902;SDS011;20194;50.950;5.346;2022-08-01T12:20:21;2.20;;;1.80;;
33902;SDS011;20194;50.950;5.346;2022-08-01T12:22:52;1.75;;;1.58;;
33902;SDS011;20194;50.950;5.346;2022-08-01T12:25:21;1.77;;;1.67;;
33902;SDS011;20194;50.950;5.346;2022-08-01T12:27:48;2.63;;;1.63;;
33902;SDS011;20194;50.950;5.346;2022-08-01T12:30:15;1.60;;;1.50;;
33902;SDS011;20194;50.950;5.346;2022-08-01T12:32:47;1.88;;;1.42;;
33902;SDS011;20194;50.950;5.346;2022-08-01T12:35:15;3.50;;;1.20;;
33902;SDS011;20194;50.950;5.346;2022-08-01T12:37:49;1.77;;;1.52;;
33902;SDS011;20194;50.950;5.346;2022-08-01T12:40:23;1.77;;;1.60;;
33902;SDS011;20194;50.950;5.346;2022-08-01T12:43:01;2.65;;;1.50;;
33902;SDS011;20194;50.950;5.346;2022-08-01T12:45:35;1.10;;;1.00;;
33902;SDS011;20194;50.950;5.346;2022-08-01T12:48:09;4.97;;;0.90;;
33902;SDS011;20194;50.950;5.346;2022-08-01T12:50:40;2.33;;;1.17;;
33902;SDS011;20194;50.950;5.346;2022-08-01T12:53:09;2.75;;;1.13;;
33902;SDS011;20194;50.950;5.346;2022-08-01T12:55:44;4.03;;;1.40;;
33902;SDS011;20194;50.950;5.346;2022-08-01T12:58:12;1.67;;;1.20;;
33902;SDS011;20194;50.950;5.346;2022-08-01T13:00:39;1.17;;;0.98;;
33902;SDS011;20194;50.950;5.346;2022-08-01T13:05:45;1.17;;;1.00;;
33902;SDS011;20194;50.950;5.346;2022-08-01T13:08:18;2.75;;;1.52;;
33902;SDS011;20194;50.950;5.346;2022-08-01T13:10:49;2.38;;;1.17;;
33902;SDS011;20194;50.950;5.346;2022-08-01T13:13:17;5.75;;;1.40;;
33902;SDS011;20194;50.950;5.346;2022-08-01T13:15:44;2.58;;;1.15;;
33902;SDS011;20194;50.950;5.346;2022-08-01T13:18:26;6.80;;;1.17;;
33902;SDS011;20194;50.950;5.346;2022-08-01T13:21:10;1.30;;;1.20;;
33902;SDS011;20194;50.950;5.346;2022-08-01T13:23:37;3.95;;;1.30;;
33902;SDS011;20194;50.950;5.346;2022-08-01T13:26:06;2.65;;;1.40;;
33902;SDS011;20194;50.950;5.346;2022-08-01T13:28:31;3.50;;;1.80;;
33902;SDS011;20194;50.950;5.346;2022-08-01T13:31:03;2.00;;;1.17;;
33902;SDS011;20194;50.950;5.346;2022-08-01T13:33:42;2.50;;;1.43;;
33902;SDS011;20194;50.950;5.346;2022-08-01T13:36:10;3.17;;;1.42;;
33902;SDS011;20194;50.950;5.346;2022-08-01T13:38:37;2.78;;;1.35;;
33902;SDS011;20194;50.950;5.346;2022-08-01T13:41:21;7.25;;;1.65;;
33902;SDS011;20194;50.950;5.346;2022-08-01T13:43:47;2.85;;;1.38;;
33902;SDS011;20194;50.950;5.346;2022-08-01T13:46:13;2.50;;;1.40;;
33902;SDS011;20194;50.950;5.346;2022-08-01T13:48:39;7.10;;;1.63;;
33902;SDS011;20194;50.950;5.346;2022-08-01T13:51:04;3.65;;;1.33;;
33902;SDS011;20194;50.950;5.346;2022-08-01T13:53:30;1.27;;;1.17;;
33902;SDS011;20194;50.950;5.346;2022-08-01T13:55:56;3.50;;;1.50;;
33902;SDS011;20194;50.950;5.346;2022-08-01T13:58:22;3.97;;;1.70;;
33902;SDS011;20194;50.950;5.346;2022-08-01T14:00:48;4.22;;;1.90;;
33902;SDS011;20194;50.950;5.346;2022-08-01T14:03:14;2.45;;;1.20;;
33902;SDS011;20194;50.950;5.346;2022-08-01T14:05:41;3.38;;;1.83;;
33902;SDS011;20194;50.950;5.346;2022-08-01T14:08:07;2.40;;;1.35;;
33902;SDS011;20194;50.950;5.346;2022-08-01T14:10:33;2.20;;;1.70;;
33902;SDS011;20194;50.950;5.346;2022-08-01T14:12:59;3.42;;;1.65;;
33902;SDS011;20194;50.950;5.346;2022-08-01T14:15:26;2.97;;;1.40;;
33902;SDS011;20194;50.950;5.346;2022-08-01T14:17:51;3.38;;;1.50;;
33902;SDS011;20194;50.950;5.346;2022-08-01T14:20:17;4.38;;;1.85;;
33902;SDS011;20194;50.950;5.346;2022-08-01T14:22:47;1.75;;;1.48;;
33902;SDS011;20194;50.950;5.346;2022-08-01T14:25:13;4.68;;;1.42;;
33902;SDS011;20194;50.950;5.346;2022-08-01T14:27:39;1.60;;;1.50;;
33902;SDS011;20194;50.950;5.346;2022-08-01T14:30:06;4.10;;;1.52;;
33902;SDS011;20194;50.950;5.346;2022-08-01T14:32:33;1.55;;;1.45;;
33902;SDS011;20194;50.950;5.346;2022-08-01T14:35:00;4.40;;;1.50;;
33902;SDS011;20194;50.950;5.346;2022-08-01T14:37:26;3.20;;;1.30;;
33902;SDS011;20194;50.950;5.346;2022-08-01T14:39:54;2.05;;;1.73;;
33902;SDS011;20194;50.950;5.346;2022-08-01T14:42:20;3.55;;;1.95;;
33902;SDS011;20194;50.950;5.346;2022-08-01T14:44:46;5.07;;;2.03;;
33902;SDS011;20194;50.950;5.346;2022-08-01T14:47:12;2.83;;;1.27;;
33902;SDS011;20194;50.950;5.346;2022-08-01T14:49:37;4.85;;;1.88;;
33902;SDS011;20194;50.950;5.346;2022-08-01T14:52:03;2.95;;;1.67;;
33902;SDS011;20194;50.950;5.346;2022-08-01T14:54:29;3.03;;;1.65;;
33902;SDS011;20194;50.950;5.346;2022-08-01T14:56:55;7.38;;;1.70;;
33902;SDS011;20194;50.950;5.346;2022-08-01T14:59:21;3.10;;;1.40;;
33902;SDS011;20194;50.950;5.346;2022-08-01T15:01:47;3.65;;;1.73;;
33902;SDS011;20194;50.950;5.346;2022-08-01T15:04:12;2.78;;;1.70;;
33902;SDS011;20194;50.950;5.346;2022-08-01T15:06:38;5.78;;;1.60;;
33902;SDS011;20194;50.950;5.346;2022-08-01T15:09:04;3.33;;;1.33;;
33902;SDS011;20194;50.950;5.346;2022-08-01T15:11:29;1.67;;;1.48;;
33902;SDS011;20194;50.950;5.346;2022-08-01T15:13:55;4.50;;;2.47;;
33902;SDS011;20194;50.950;5.346;2022-08-01T15:16:39;4.63;;;1.83;;
33902;SDS011;20194;50.950;5.346;2022-08-01T15:19:05;6.05;;;1.92;;
33902;SDS011;20194;50.950;5.346;2022-08-01T15:21:32;4.82;;;1.77;;
33902;SDS011;20194;50.950;5.346;2022-08-01T15:23:57;4.65;;;1.90;;
33902;SDS011;20194;50.950;5.346;2022-08-01T15:26:23;3.63;;;1.70;;
33902;SDS011;20194;50.950;5.346;2022-08-01T15:28:49;3.78;;;1.73;;
33902;SDS011;20194;50.950;5.346;2022-08-01T15:31:15;3.42;;;1.60;;
33902;SDS011;20194;50.950;5.346;2022-08-01T15:33:41;4.20;;;1.90;;
33902;SDS011;20194;50.950;5.346;2022-08-01T15:36:07;5.22;;;1.90;;
33902;SDS011;20194;50.950;5.346;2022-08-01T15:38:32;2.63;;;1.58;;